Aérodrome :
LOGIN :

S'inscrire | Disclaimer

   EN    FR    IT 

 










Légende :    VFR   VFR Marginal   IFR   IFR Intensif   IFR Très Intensif
Visi : 
Plafond : 
>= 8 km
>= 3000ft
5 à 8 km
1000 à 3000 ft
1500m à 5 km
500 à 1000 ft
800 à 1500m
200 à 500 ft
< 800m
< 200 ft
Symboles :   Orages  Brouillard  Fortes neiges  Fortes précipitations  Vent > 20 kt
SIGMETs :   Divers  Orages  Givrage  Turbulence  Onde Orograph.  Cendres Volcan.







- Altitude de l'aérodrome : 82 ft
- Code IATA : QIE
- Voir les cartes d'approche


LFMI - Istres

DERNIER METAR :
  • 240000Z AUTO 29012KT CAVOK 23/13 Q1013 NOSIG

METARs EXPIRÉS :
  • 232330Z AUTO 28010KT CAVOK 23/13 Q1013 NOSIG
  • 232300Z AUTO 28010KT CAVOK 24/14 Q1013 NOSIG
  • 232230Z AUTO 26012KT CAVOK 24/15 Q1014 BECMG 32011KT
  • 232200Z AUTO 24016KT CAVOK 24/16 Q1014 TEMPO 4000 SHRA FEW020CB SCT025TCU BKN030 BECMG 32011KT
  • 232130Z AUTO 24019KT CAVOK 26/14 Q1014 TEMPO 4000 SHRA FEW020CB SCT025TCU BKN030 BECMG 32011KT

TAF AMD TAF LFMI
Valide du 23 à 21h jusqu'au 24 à 21h UTC


232121Z 2321/2421 21010KT CAVOK
TEMPO 2321/2323 27017KT 4000 SHRA FEW020CB SCT025TCU BKN030
BECMG 2323/2401 32011KT
BECMG 2406/2409 32013G23KT
TEMPO 2410/2421 32021G33KT
Pas de NOTAMs connus pour ce terrain.



MET'MAP, la Météo Aéronautique d'un coup d'oeil ! - Copyright ORBIFLY Décembre 2007 - Disclaimer

ORBIFLY MET'MAP TEAM :

Programmation & Développement : Alexandra Zaïnal
Conception & Développement : Baudouin d'Aumeries
Co-Programmation & Développement : Marc-Olivier Méhu
Soutien technique & logistique : Manuel Goepfert

Contact : metmap@orbifly.com




SOURCES & CREDITS :

   NOAA